WKL weather

Waikoloa Heliport
Waikoloa Village, Hawaii, United States

Public forecast

Using degrees Fahrenheit for public forecast. Weather courtesy of forecast.io.

METAR (pilot weather report)

Closest report is Ellison Onizuka Kona International At Keahole Airport, 15.1 nm (28.0 km) SW. Retrieved 2019/07/24 05:53 UTC (54 minutes ago):

PHKO 240553Z 20006KT 10SM CLR 28/23 A2999

TAF (pilot weather forecast)

Closest forecast is Ellison Onizuka Kona International At Keahole Airport, 15.1 nm (28.0 km) SW. Retrieved 2019/07/24 06:24 UTC (23 minutes ago):

TAF PHKO 240522Z 2406/2506 14009KT P6SM SCT045 FM241000 VRB05KT P6SM SCT045 FM242200 22012KT P6SM SCT050 FM250500 14009KT P6SM SCT045